Time;durP1;ratioP1;P1;durP2;ratioP2;P2;SDS_P1;SDS_P2;PMS_P1;PMS_P2;Temp;Humidity;BMP_temperature;BMP_pressure;BME280_temperature;BME280_humidity;BME280_pressure;Samples;Min_cycle;Max_cycle;Signal;HPM_P1;HPM_P2
2020/12/17 00:02:45;;;;;;;18.47;12.80;;;4.80;99.90;;;;;;6200821;28;20817;-59
2020/12/17 00:05:48;;;;;;;18.83;11.30;;;4.70;99.90;;;;;;6200767;28;20483;-61
2020/12/17 00:08:51;;;;;;;18.00;13.60;;;4.70;99.90;;;;;;6200883;28;20469;-58
2020/12/17 00:11:56;;;;;;;15.07;10.83;;;4.70;99.90;;;;;;6201009;28;20477;-61
2020/12/17 00:14:59;;;;;;;19.10;11.47;;;4.70;99.90;;;;;;6201058;28;20473;-58
2020/12/17 00:18:04;;;;;;;14.77;10.73;;;4.80;99.90;;;;;;6200932;28;20508;-63
2020/12/17 00:21:06;;;;;;;20.07;12.07;;;4.70;99.90;;;;;;6200589;28;20485;-61
2020/12/17 00:24:08;;;;;;;18.00;10.93;;;4.70;99.90;;;;;;6200600;28;20484;-60
2020/12/17 00:27:10;;;;;;;16.60;10.50;;;4.80;99.90;;;;;;6208975;28;20468;-57
2020/12/17 00:30:16;;;;;;;19.60;12.03;;;4.80;99.90;;;;;;6209574;28;20468;-57
2020/12/17 00:33:18;;;;;;;17.67;11.60;;;4.70;99.90;;;;;;6210545;28;20507;-56
2020/12/17 00:36:22;;;;;;;18.63;12.00;;;4.80;99.90;;;;;;6204600;28;20484;-57
2020/12/17 00:39:25;;;;;;;15.97;10.80;;;4.80;99.90;;;;;;6199538;28;20487;-57
2020/12/17 00:42:27;;;;;;;21.20;11.63;;;4.80;99.90;;;;;;6209570;28;20472;-58
2020/12/17 00:45:30;;;;;;;16.50;10.43;;;4.80;99.90;;;;;;6204559;28;20480;-58
2020/12/17 00:48:32;;;;;;;19.43;11.97;;;4.80;99.90;;;;;;6217855;28;20816;-59
2020/12/17 00:51:34;;;;;;;20.53;12.00;;;4.80;99.90;;;;;;6216481;28;20464;-58
2020/12/17 00:54:38;;;;;;;23.60;12.07;;;4.70;99.90;;;;;;6207154;28;20484;-58
2020/12/17 00:57:40;;;;;;;18.87;11.93;;;4.80;99.90;;;;;;6216943;28;20975;-58
2020/12/17 01:00:43;;;;;;;17.53;12.07;;;4.70;99.90;;;;;;6216591;28;20553;-58
2020/12/17 01:03:46;;;;;;;16.77;10.00;;;4.70;99.90;;;;;;6215803;28;20997;-58
2020/12/17 01:06:49;;;;;;;17.70;12.00;;;4.80;99.90;;;;;;6217286;28;20839;-57
2020/12/17 01:09:51;;;;;;;21.00;11.83;;;4.80;99.90;;;;;;6215264;28;20625;-58
2020/12/17 01:12:53;;;;;;;17.83;11.80;;;4.80;99.90;;;;;;6215352;28;20476;-58
2020/12/17 01:15:57;;;;;;;17.97;10.93;;;4.70;99.90;;;;;;6217565;28;20476;-58
2020/12/17 01:18:59;;;;;;;18.67;11.40;;;4.80;99.90;;;;;;6225824;28;20797;-58
2020/12/17 01:22:02;;;;;;;17.87;11.97;;;4.80;99.90;;;;;;6207568;28;20473;-58
2020/12/17 01:25:05;;;;;;;17.03;9.70;;;4.80;99.90;;;;;;6219418;28;20486;-58
2020/12/17 01:28:13;;;;;;;17.20;10.57;;;4.70;99.90;;;;;;6208475;28;20448;-58
2020/12/17 01:31:16;;;;;;;18.83;10.73;;;4.70;99.90;;;;;;6214306;28;20458;-58
2020/12/17 01:34:18;;;;;;;16.50;10.77;;;4.70;99.90;;;;;;6222384;28;21071;-58
2020/12/17 01:37:20;;;;;;;15.90;10.23;;;4.70;99.90;;;;;;6222154;28;20457;-59
2020/12/17 01:40:22;;;;;;;16.50;10.40;;;4.70;99.90;;;;;;6228625;28;20468;-59
2020/12/17 01:43:25;;;;;;;18.70;11.50;;;4.70;99.90;;;;;;6228712;28;20475;-59
2020/12/17 01:46:28;;;;;;;18.60;12.80;;;4.70;99.90;;;;;;6228531;28;20479;-59
2020/12/17 01:49:30;;;;;;;18.03;10.37;;;4.60;99.90;;;;;;6228358;28;20483;-59
2020/12/17 01:52:33;;;;;;;18.40;12.10;;;4.60;99.90;;;;;;6228547;28;20476;-59
2020/12/17 01:55:35;;;;;;;18.10;10.83;;;4.60;99.90;;;;;;6223756;28;20484;-60
2020/12/17 01:58:45;;;;;;;21.07;11.10;;;4.50;99.90;;;;;;6228060;28;20835;-59
2020/12/17 02:01:49;;;;;;;21.73;11.17;;;4.50;99.90;;;;;;6227796;28;20469;-59
2020/12/17 02:04:52;;;;;;;19.83;10.30;;;4.50;99.90;;;;;;6227769;28;20475;-59
2020/12/17 02:08:14;;;;;;;19.53;11.17;;;4.50;99.90;;;;;;6228393;28;20464;-58
2020/12/17 02:11:16;;;;;;;14.93;10.33;;;4.50;99.90;;;;;;6227807;28;20480;-58
2020/12/17 02:14:18;;;;;;;19.23;11.40;;;4.60;99.90;;;;;;6228000;28;20968;-57
2020/12/17 02:17:21;;;;;;;23.53;11.90;;;4.60;99.90;;;;;;6227464;28;20554;-59
2020/12/17 02:20:24;;;;;;;23.23;12.23;;;4.60;99.90;;;;;;6227775;28;20476;-58
2020/12/17 02:23:26;;;;;;;19.37;10.97;;;4.70;99.90;;;;;;6227697;28;20467;-59
2020/12/17 02:26:29;;;;;;;17.40;11.00;;;4.70;99.90;;;;;;6227370;28;20464;-58
2020/12/17 02:29:31;;;;;;;20.10;11.43;;;4.60;99.90;;;;;;6227168;28;21030;-58
2020/12/17 02:32:34;;;;;;;18.60;11.20;;;4.60;99.90;;;;;;6227270;28;20979;-58
2020/12/17 02:35:36;;;;;;;17.53;10.27;;;4.60;99.90;;;;;;6227187;28;20525;-58
2020/12/17 02:38:42;;;;;;;13.63;9.47;;;4.60;99.90;;;;;;6227497;28;20468;-58
2020/12/17 02:41:45;;;;;;;19.83;10.43;;;4.70;99.90;;;;;;6226819;28;20480;-59
2020/12/17 02:44:48;;;;;;;18.60;10.60;;;4.70;99.90;;;;;;6226884;28;20959;-58
2020/12/17 02:47:53;;;;;;;16.37;10.50;;;4.60;99.90;;;;;;6226886;28;20486;-59
2020/12/17 02:50:55;;;;;;;16.90;10.43;;;4.60;99.90;;;;;;6226774;28;20550;-59
2020/12/17 02:53:57;;;;;;;18.70;12.90;;;4.60;99.90;;;;;;6226923;28;20475;-60
2020/12/17 02:57:00;;;;;;;18.80;11.30;;;4.60;99.90;;;;;;6226820;28;20468;-59
2020/12/17 03:00:05;;;;;;;15.37;10.03;;;4.70;99.90;;;;;;6227210;28;20482;-59
2020/12/17 03:03:08;;;;;;;13.70;9.07;;;4.70;99.90;;;;;;6222222;28;20481;-59
2020/12/17 03:06:10;;;;;;;16.40;10.60;;;4.70;99.90;;;;;;6226599;28;20511;-59
2020/12/17 03:09:13;;;;;;;16.20;11.10;;;4.70;99.90;;;;;;6226284;28;20487;-59
2020/12/17 03:12:16;;;;;;;18.63;9.70;;;4.70;99.90;;;;;;6226267;28;20480;-59
2020/12/17 03:15:19;;;;;;;17.03;9.87;;;4.70;99.90;;;;;;6225346;28;20488;-61
2020/12/17 03:18:21;;;;;;;14.17;10.00;;;4.60;99.90;;;;;;6226286;28;20931;-59
2020/12/17 03:21:23;;;;;;;13.80;9.23;;;4.60;99.90;;;;;;6226009;28;20480;-59
2020/12/17 03:24:26;;;;;;;15.30;9.77;;;4.60;99.90;;;;;;6225930;28;20476;-59
2020/12/17 03:27:32;;;;;;;17.20;8.67;;;4.60;99.90;;;;;;6226070;28;20511;-62
2020/12/17 03:30:34;;;;;;;14.40;9.23;;;4.70;99.90;;;;;;6225756;28;20487;-62
2020/12/17 03:33:37;;;;;;;11.70;8.10;;;4.70;99.90;;;;;;6226231;28;21149;-62
2020/12/17 03:36:39;;;;;;;13.50;9.03;;;4.60;99.90;;;;;;6225898;28;20472;-62
2020/12/17 03:39:41;;;;;;;15.73;10.30;;;4.60;99.90;;;;;;6226073;28;20471;-59
2020/12/17 03:42:44;;;;;;;13.03;8.70;;;4.60;99.90;;;;;;6225697;28;20480;-59
2020/12/17 03:45:46;;;;;;;15.10;9.00;;;4.50;99.90;;;;;;6225790;28;20471;-59
2020/12/17 03:48:49;;;;;;;14.83;9.37;;;4.50;99.90;;;;;;6225529;28;20468;-59
2020/12/17 03:51:51;;;;;;;14.47;9.17;;;4.40;99.90;;;;;;6220071;28;20551;-59
2020/12/17 03:54:54;;;;;;;14.90;8.67;;;4.40;99.90;;;;;;6215622;28;20481;-58
2020/12/17 03:57:57;;;;;;;11.40;8.63;;;4.30;99.90;;;;;;6208820;28;20472;-59
2020/12/17 04:00:59;;;;;;;12.47;9.00;;;4.20;99.90;;;;;;6200739;28;20496;-61
2020/12/17 04:04:01;;;;;;;15.70;9.90;;;4.20;99.90;;;;;;6209743;28;20441;-61
2020/12/17 04:07:03;;;;;;;15.23;9.70;;;4.30;99.90;;;;;;6213813;28;20443;-61
2020/12/17 04:10:05;;;;;;;13.30;8.40;;;4.30;99.90;;;;;;6219813;28;20479;-61
2020/12/17 04:13:08;;;;;;;15.20;9.30;;;4.30;99.90;;;;;;6225471;28;20440;-60
2020/12/17 04:16:11;;;;;;;14.27;8.20;;;4.30;99.90;;;;;;6225230;28;20476;-60
2020/12/17 04:19:13;;;;;;;10.90;7.67;;;4.30;99.90;;;;;;6225157;28;20900;-60
2020/12/17 04:22:16;;;;;;;10.60;7.60;;;4.30;99.90;;;;;;6225099;28;20820;-58
2020/12/17 04:25:19;;;;;;;13.63;7.90;;;4.20;99.90;;;;;;6225880;28;20452;-59
2020/12/17 04:28:22;;;;;;;10.53;8.37;;;4.10;99.90;;;;;;6230382;28;20468;-58
2020/12/17 04:31:24;;;;;;;12.40;8.27;;;4.20;99.90;;;;;;6230192;28;20475;-59
2020/12/17 04:34:26;;;;;;;11.77;7.93;;;4.20;99.90;;;;;;6230268;28;20478;-59
2020/12/17 04:37:28;;;;;;;14.93;8.87;;;4.20;99.90;;;;;;6229872;28;20472;-59
2020/12/17 04:40:31;;;;;;;13.37;8.90;;;4.20;99.90;;;;;;6229943;28;20479;-59
2020/12/17 04:43:34;;;;;;;14.50;8.90;;;4.20;99.90;;;;;;6221644;28;20465;-59
2020/12/17 04:46:36;;;;;;;13.27;8.40;;;4.30;99.90;;;;;;6217732;28;20464;-58
2020/12/17 04:49:47;;;;;;;12.47;7.43;;;4.30;99.90;;;;;;6216739;28;20504;-58
2020/12/17 04:52:53;;;;;;;14.40;8.60;;;4.30;99.90;;;;;;6216033;28;20479;-59
2020/12/17 04:55:58;;;;;;;11.90;8.03;;;4.40;99.90;;;;;;6214424;28;20469;-58
2020/12/17 04:59:03;;;;;;;8.67;7.20;;;4.40;99.90;;;;;;6217270;28;20464;-59
2020/12/17 05:02:06;;;;;;;12.73;8.07;;;4.30;99.90;;;;;;6217133;28;20480;-59
2020/12/17 05:05:08;;;;;;;14.27;8.30;;;4.30;99.90;;;;;;6217101;28;20952;-59
2020/12/17 05:08:11;;;;;;;9.70;7.90;;;4.30;99.90;;;;;;6206361;28;20457;-58
2020/12/17 05:11:14;;;;;;;12.80;9.23;;;4.40;99.90;;;;;;6217295;28;20472;-59
2020/12/17 05:14:18;;;;;;;12.30;7.83;;;4.40;99.90;;;;;;6216434;28;20473;-58
2020/12/17 05:17:21;;;;;;;14.40;8.07;;;4.40;99.90;;;;;;6215810;28;20503;-58
2020/12/17 05:20:23;;;;;;;10.87;6.93;;;4.40;99.90;;;;;;6216490;28;20472;-58
2020/12/17 05:23:26;;;;;;;11.30;8.27;;;4.40;99.90;;;;;;6215391;28;20468;-58
2020/12/17 05:26:29;;;;;;;14.67;10.87;;;4.50;99.90;;;;;;6217580;28;20473;-57
2020/12/17 05:29:32;;;;;;;15.53;9.20;;;4.40;99.90;;;;;;6215106;28;20469;-58
2020/12/17 05:32:34;;;;;;;12.80;10.00;;;4.50;99.90;;;;;;6217470;28;20805;-61
2020/12/17 05:35:42;;;;;;;12.20;9.20;;;4.50;99.90;;;;;;6216098;28;20491;-61
2020/12/17 05:38:44;;;;;;;11.67;8.07;;;4.50;99.90;;;;;;6216169;28;20469;-61
2020/12/17 05:41:48;;;;;;;11.40;9.30;;;4.50;99.90;;;;;;6214582;28;20971;-60
2020/12/17 05:44:52;;;;;;;12.40;9.30;;;4.60;99.90;;;;;;6212051;28;20822;-60
2020/12/17 05:48:10;;;;;;;13.60;7.80;;;4.60;99.90;;;;;;6206683;28;20465;-60
2020/12/17 05:51:19;;;;;;;17.10;9.23;;;4.60;99.90;;;;;;6213240;28;20465;-60
2020/12/17 05:54:25;;;;;;;13.00;8.00;;;4.50;99.90;;;;;;6224590;28;20484;-60
2020/12/17 05:57:27;;;;;;;13.37;8.17;;;4.50;99.90;;;;;;6221017;28;20475;-60
2020/12/17 06:00:30;;;;;;;15.73;9.77;;;4.50;99.90;;;;;;6227765;28;20483;-60
2020/12/17 06:03:33;;;;;;;13.77;8.80;;;4.50;99.90;;;;;;6227892;28;20486;-58
2020/12/17 06:06:43;;;;;;;11.17;8.67;;;4.50;99.90;;;;;;6228111;28;20467;-59
2020/12/17 06:09:54;;;;;;;14.20;8.13;;;4.50;99.90;;;;;;6227734;28;20487;-59
2020/12/17 06:12:58;;;;;;;12.40;8.27;;;4.40;99.90;;;;;;6223422;28;20480;-59
2020/12/17 06:16:05;;;;;;;9.67;7.07;;;4.40;99.90;;;;;;6226791;28;20499;-60
2020/12/17 06:19:10;;;;;;;14.20;8.30;;;4.40;99.90;;;;;;6227795;28;20436;-59
2020/12/17 06:22:13;;;;;;;14.80;8.23;;;4.50;99.90;;;;;;6227715;28;20488;-59
2020/12/17 06:25:18;;;;;;;10.90;7.00;;;4.50;99.90;;;;;;6227351;28;20908;-60
2020/12/17 06:28:38;;;;;;;9.67;6.20;;;4.50;99.90;;;;;;6227592;28;20480;-60
2020/12/17 06:31:53;;;;;;;9.17;8.03;;;4.50;99.90;;;;;;6227544;28;20473;-59
2020/12/17 06:34:59;;;;;;;10.87;9.47;;;4.60;99.90;;;;;;6227411;28;20469;-57
2020/12/17 06:38:07;;;;;;;11.67;8.27;;;4.60;99.90;;;;;;6227457;28;20476;-59
2020/12/17 06:41:17;;;;;;;13.00;7.27;;;4.60;99.90;;;;;;6227113;28;20487;-59
2020/12/17 06:44:30;;;;;;;14.20;8.80;;;4.70;99.90;;;;;;6227148;28;20472;-59
2020/12/17 06:47:33;;;;;;;14.97;10.00;;;4.70;99.90;;;;;;6227255;28;20483;-59
2020/12/17 06:50:38;;;;;;;11.47;8.30;;;4.60;99.90;;;;;;6226305;28;20491;-59
2020/12/17 06:53:41;;;;;;;16.70;8.97;;;4.60;99.90;;;;;;6226918;28;20472;-59
2020/12/17 06:57:03;;;;;;;17.53;10.23;;;4.60;99.90;;;;;;6226850;28;20468;-59
2020/12/17 07:00:07;;;;;;;14.27;8.50;;;4.70;99.90;;;;;;6226968;28;20491;-58
2020/12/17 07:03:10;;;;;;;13.47;8.97;;;4.60;99.90;;;;;;6226606;28;20475;-61
2020/12/17 07:06:14;;;;;;;13.40;8.60;;;4.60;99.90;;;;;;6226535;28;20502;-59
2020/12/17 07:09:30;;;;;;;11.83;8.40;;;4.60;99.90;;;;;;6226310;28;20479;-60
2020/12/17 07:12:45;;;;;;;13.60;8.03;;;4.50;99.90;;;;;;6226417;28;20817;-60
2020/12/17 07:15:48;;;;;;;15.63;8.83;;;4.50;99.90;;;;;;6226434;28;20481;-59
2020/12/17 07:18:52;;;;;;;16.50;9.70;;;4.40;99.90;;;;;;6226388;28;20535;-59
2020/12/17 07:22:02;;;;;;;16.93;9.60;;;4.40;99.90;;;;;;6226312;28;20884;-58
2020/12/17 07:25:04;;;;;;;11.83;8.10;;;4.30;99.90;;;;;;6226405;28;20444;-58
2020/12/17 07:28:07;;;;;;;11.93;8.97;;;4.30;99.90;;;;;;6226262;28;20448;-61
2020/12/17 07:31:09;;;;;;;15.10;9.90;;;4.30;99.90;;;;;;6226058;28;20929;-61
2020/12/17 07:34:16;;;;;;;12.93;10.13;;;4.30;99.90;;;;;;6225725;28;20774;-61
2020/12/17 07:37:38;;;;;;;12.40;8.70;;;4.30;99.90;;;;;;6226141;28;20468;-62
2020/12/17 07:40:41;;;;;;;17.07;9.60;;;4.20;99.90;;;;;;6225893;28;20476;-62
2020/12/17 07:43:43;;;;;;;14.07;8.70;;;4.20;99.90;;;;;;6225461;28;20475;-62
2020/12/17 07:46:46;;;;;;;15.43;9.20;;;4.20;99.90;;;;;;6224900;28;20476;-62
2020/12/17 07:49:50;;;;;;;14.00;8.87;;;4.30;99.90;;;;;;6225425;28;20491;-59
2020/12/17 07:52:52;;;;;;;15.00;9.33;;;4.20;99.90;;;;;;6225643;28;20468;-62
2020/12/17 07:55:55;;;;;;;13.37;8.93;;;4.20;99.90;;;;;;6225491;28;20472;-62
2020/12/17 07:59:01;;;;;;;16.20;10.33;;;4.20;99.90;;;;;;6225279;28;20468;-61
2020/12/17 08:02:04;;;;;;;13.93;9.73;;;4.20;99.90;;;;;;6224900;28;20472;-60
2020/12/17 08:05:08;;;;;;;15.23;8.50;;;4.20;99.90;;;;;;6225474;28;20468;-60
2020/12/17 08:08:13;;;;;;;14.63;10.20;;;4.10;99.90;;;;;;6225631;28;20476;-60
2020/12/17 08:11:15;;;;;;;21.10;10.73;;;4.20;99.90;;;;;;6225963;28;20480;-60
2020/12/17 08:14:22;;;;;;;15.70;10.67;;;4.10;99.90;;;;;;6225624;28;20475;-59
2020/12/17 08:17:25;;;;;;;13.67;9.70;;;4.10;99.90;;;;;;6225405;28;20480;-58
2020/12/17 08:20:28;;;;;;;16.03;9.87;;;4.20;99.90;;;;;;6216505;28;20480;-58
2020/12/17 08:23:31;;;;;;;13.73;8.20;;;4.30;99.90;;;;;;6225388;28;20491;-60
2020/12/17 08:26:34;;;;;;;15.90;9.37;;;4.30;99.90;;;;;;6225094;28;20468;-61
2020/12/17 08:29:36;;;;;;;16.33;8.60;;;4.30;99.90;;;;;;6224634;28;20463;-59
2020/12/17 08:32:47;;;;;;;14.13;9.97;;;4.30;99.90;;;;;;6225094;28;20812;-59
2020/12/17 08:35:50;;;;;;;15.10;9.60;;;4.30;99.90;;;;;;6225009;28;20491;-59
2020/12/17 08:38:57;;;;;;;14.00;9.63;;;4.20;99.90;;;;;;6225031;28;20482;-58
2020/12/17 08:42:00;;;;;;;15.27;9.63;;;4.20;99.90;;;;;;6224604;28;20503;-59
2020/12/17 08:45:05;;;;;;;14.00;9.30;;;4.20;99.90;;;;;;6224810;28;20479;-59
2020/12/17 08:48:16;;;;;;;13.43;8.93;;;4.20;99.90;;;;;;6225216;28;20543;-59
2020/12/17 08:51:22;;;;;;;11.83;8.43;;;4.20;99.90;;;;;;6224867;28;20476;-59
2020/12/17 08:54:25;;;;;;;15.23;8.80;;;4.30;99.90;;;;;;6224894;28;20473;-59
2020/12/17 08:57:27;;;;;;;14.50;9.87;;;4.30;99.90;;;;;;6224827;28;20482;-62
2020/12/17 09:00:30;;;;;;;12.80;9.40;;;4.40;99.90;;;;;;6224510;28;20984;-60
2020/12/17 09:03:43;;;;;;;21.80;10.57;;;4.50;99.90;;;;;;6224363;28;20521;-62
2020/12/17 09:06:52;;;;;;;16.17;9.40;;;4.40;99.90;;;;;;6224691;28;20487;-62
2020/12/17 09:10:06;;;;;;;14.43;8.90;;;4.50;99.90;;;;;;6224536;28;20476;-62
2020/12/17 09:13:08;;;;;;;15.80;11.43;;;4.60;99.90;;;;;;6226216;28;20452;-62
2020/12/17 09:16:11;;;;;;;14.30;10.07;;;4.50;99.90;;;;;;6228729;28;20815;-62
2020/12/17 09:19:13;;;;;;;15.43;10.60;;;4.60;99.90;;;;;;6229261;28;20448;-62
2020/12/17 09:22:19;;;;;;;15.70;9.97;;;4.60;99.90;;;;;;6228574;28;20796;-61
2020/12/17 09:25:28;;;;;;;13.00;9.33;;;4.60;99.90;;;;;;6228711;28;20783;-62
2020/12/17 09:28:30;;;;;;;17.30;10.90;;;4.50;99.90;;;;;;6228916;28;20563;-61
2020/12/17 09:31:35;;;;;;;15.30;10.47;;;4.50;99.90;;;;;;6228694;28;20482;-62
2020/12/17 09:34:38;;;;;;;15.47;9.97;;;4.40;99.90;;;;;;6228650;28;20482;-61
2020/12/17 09:37:54;;;;;;;20.30;11.37;;;4.50;99.90;;;;;;6228767;28;20468;-62
2020/12/17 09:40:56;;;;;;;20.00;12.10;;;4.50;99.90;;;;;;6228130;28;20476;-61
2020/12/17 09:43:58;;;;;;;15.63;10.70;;;4.50;99.90;;;;;;6228345;28;20483;-61
2020/12/17 09:47:02;;;;;;;13.53;10.53;;;4.60;99.90;;;;;;6228808;28;20464;-62
2020/12/17 09:50:12;;;;;;;16.80;9.57;;;4.50;99.90;;;;;;6228235;28;20507;-61
2020/12/17 09:53:15;;;;;;;18.37;11.33;;;4.50;99.90;;;;;;6228286;28;20472;-62
2020/12/17 09:56:18;;;;;;;14.50;10.00;;;4.60;99.90;;;;;;6228442;28;20491;-62
2020/12/17 09:59:20;;;;;;;13.17;10.30;;;4.60;99.90;;;;;;6228210;28;20468;-63
2020/12/17 10:02:23;;;;;;;16.23;10.47;;;4.70;99.90;;;;;;6227927;28;20483;-63
2020/12/17 10:05:25;;;;;;;14.90;11.00;;;4.70;99.90;;;;;;6227798;28;20487;-62
2020/12/17 10:08:29;;;;;;;16.83;11.50;;;4.70;99.90;;;;;;6227779;28;20548;-63
2020/12/17 10:11:32;;;;;;;15.97;12.10;;;4.70;99.90;;;;;;6227620;28;20480;-63
2020/12/17 10:14:34;;;;;;;15.47;11.50;;;4.70;99.90;;;;;;6227779;28;20467;-62
2020/12/17 10:17:39;;;;;;;17.53;11.57;;;4.70;99.90;;;;;;6227834;28;20503;-62
2020/12/17 10:20:41;;;;;;;22.40;11.63;;;4.80;99.90;;;;;;6227362;28;20480;-62
2020/12/17 10:23:45;;;;;;;14.17;11.10;;;4.80;99.90;;;;;;6227562;28;20531;-61
2020/12/17 10:26:47;;;;;;;19.47;12.40;;;4.80;99.90;;;;;;6227565;28;20595;-62
2020/12/17 10:29:59;;;;;;;17.93;12.03;;;4.80;99.90;;;;;;6214105;28;20480;-62
2020/12/17 10:33:01;;;;;;;13.37;11.37;;;4.80;99.90;;;;;;6227240;28;20476;-62
2020/12/17 10:36:03;;;;;;;17.80;11.93;;;4.80;99.90;;;;;;6227049;28;20478;-62
2020/12/17 10:39:08;;;;;;;17.80;10.27;;;4.80;99.90;;;;;;6227081;28;20546;-62
2020/12/17 10:42:10;;;;;;;17.10;11.73;;;4.80;99.90;;;;;;6226633;28;20487;-62
2020/12/17 10:45:12;;;;;;;16.50;11.03;;;4.80;99.90;;;;;;6226906;28;20468;-63
2020/12/17 10:48:14;;;;;;;18.93;11.37;;;4.70;99.90;;;;;;6191482;28;20478;-62
2020/12/17 10:51:17;;;;;;;21.27;12.53;;;4.70;99.90;;;;;;6192346;28;20477;-59
2020/12/17 10:54:20;;;;;;;23.23;12.73;;;4.70;99.90;;;;;;6207221;28;20474;-59
2020/12/17 10:57:22;;;;;;;17.87;11.83;;;4.60;99.90;;;;;;6224566;28;20467;-59
2020/12/17 11:00:24;;;;;;;26.20;13.43;;;4.50;99.90;;;;;;6220173;28;20479;-59
2020/12/17 11:03:26;;;;;;;16.47;12.33;;;4.50;99.90;;;;;;6216639;28;20996;-60
2020/12/17 11:06:29;;;;;;;22.40;15.30;;;4.60;99.90;;;;;;6201805;28;20488;-60
2020/12/17 11:09:32;;;;;;;26.87;13.20;;;4.60;99.90;;;;;;6201725;28;21008;-59
2020/12/17 11:12:34;;;;;;;15.37;12.30;;;4.70;99.90;;;;;;6207924;28;20473;-60
2020/12/17 11:15:36;;;;;;;18.70;12.40;;;4.70;99.90;;;;;;6226006;28;20476;-62
2020/12/17 11:18:39;;;;;;;17.93;11.60;;;4.80;99.90;;;;;;6225670;28;20484;-63
2020/12/17 11:21:41;;;;;;;17.10;12.73;;;4.90;99.90;;;;;;6215658;28;20476;-60
2020/12/17 11:24:44;;;;;;;18.03;11.73;;;5.00;99.90;;;;;;6214263;28;20539;-59
2020/12/17 11:27:49;;;;;;;20.67;13.80;;;5.00;99.90;;;;;;6211748;28;20465;-62
2020/12/17 11:30:51;;;;;;;18.43;12.80;;;4.90;99.90;;;;;;6225805;28;20575;-62
2020/12/17 11:33:54;;;;;;;16.30;11.40;;;5.00;99.90;;;;;;6203322;28;20555;-62
2020/12/17 11:36:56;;;;;;;24.70;13.57;;;5.00;99.90;;;;;;6211014;28;20479;-62
2020/12/17 11:39:59;;;;;;;16.97;13.27;;;5.00;99.90;;;;;;6205643;28;20480;-62
2020/12/17 11:43:01;;;;;;;21.67;14.00;;;5.00;99.90;;;;;;6212550;28;20484;-61
2020/12/17 11:46:04;;;;;;;22.77;13.13;;;4.90;99.90;;;;;;6206406;28;20437;-63
2020/12/17 11:49:06;;;;;;;21.50;13.13;;;4.90;99.90;;;;;;6203046;28;20449;-63
2020/12/17 11:52:08;;;;;;;18.03;12.50;;;5.00;99.90;;;;;;6201531;28;20462;-63
2020/12/17 11:55:11;;;;;;;20.30;13.43;;;5.00;99.90;;;;;;6201527;28;20528;-63
2020/12/17 11:58:18;;;;;;;17.93;12.33;;;5.10;99.90;;;;;;6200981;28;20430;-63
2020/12/17 12:01:29;;;;;;;19.43;13.27;;;5.10;99.90;;;;;;6201036;28;20469;-63
2020/12/17 12:04:31;;;;;;;19.70;12.90;;;5.20;99.90;;;;;;6201184;28;20560;-63
2020/12/17 12:07:34;;;;;;;16.23;12.10;;;5.20;99.90;;;;;;6200732;28;20820;-62
2020/12/17 12:10:37;;;;;;;22.90;15.00;;;5.10;99.90;;;;;;6200751;28;20491;-62
2020/12/17 12:13:41;;;;;;;23.00;13.33;;;5.00;99.90;;;;;;6213937;28;20785;-62
2020/12/17 12:16:43;;;;;;;18.43;13.17;;;5.00;99.90;;;;;;6217839;28;20840;-63
2020/12/17 12:19:45;;;;;;;19.70;13.40;;;5.10;99.90;;;;;;6209954;28;20480;-62
2020/12/17 12:22:47;;;;;;;15.97;12.13;;;5.10;99.90;;;;;;6210540;28;20473;-62
2020/12/17 12:25:50;;;;;;;18.10;13.57;;;5.10;99.90;;;;;;6225024;28;20472;-63
2020/12/17 12:28:53;;;;;;;19.80;12.90;;;5.10;99.90;;;;;;6224843;28;20823;-64
2020/12/17 12:31:55;;;;;;;20.87;14.23;;;5.10;99.90;;;;;;6225345;28;20506;-62
2020/12/17 12:34:57;;;;;;;17.97;13.80;;;5.10;99.90;;;;;;6220592;28;20499;-64
2020/12/17 12:37:59;;;;;;;19.90;13.40;;;5.20;99.90;;;;;;6225055;28;20475;-65
2020/12/17 12:41:02;;;;;;;20.07;14.20;;;5.20;99.90;;;;;;6224654;28;20968;-63
2020/12/17 12:44:04;;;;;;;18.87;13.87;;;5.20;99.90;;;;;;6224615;28;20877;-65
2020/12/17 12:47:07;;;;;;;23.73;15.00;;;5.10;99.90;;;;;;6223060;28;20491;-61
2020/12/17 12:50:09;;;;;;;18.70;13.87;;;5.20;99.90;;;;;;6205205;28;20480;-63
2020/12/17 12:53:11;;;;;;;22.83;13.00;;;5.20;99.90;;;;;;6205342;28;20817;-63
2020/12/17 12:56:14;;;;;;;21.43;14.47;;;5.30;99.90;;;;;;6205049;28;20469;-62
2020/12/17 12:59:19;;;;;;;21.90;16.10;;;5.30;99.90;;;;;;6207550;28;20780;-62
2020/12/17 13:02:21;;;;;;;23.60;14.43;;;5.20;99.90;;;;;;6207283;28;20568;-62
2020/12/17 13:05:23;;;;;;;20.57;13.97;;;5.30;99.90;;;;;;6204736;28;20483;-62
2020/12/17 13:08:25;;;;;;;20.60;14.43;;;5.30;99.90;;;;;;6205095;28;20472;-62
2020/12/17 13:11:29;;;;;;;22.13;14.10;;;5.20;99.90;;;;;;6204905;28;20480;-62
2020/12/17 13:14:31;;;;;;;22.47;15.57;;;5.20;99.90;;;;;;6213184;28;20492;-61
2020/12/17 13:17:33;;;;;;;22.37;15.07;;;5.30;99.90;;;;;;6211493;28;20472;-62
2020/12/17 13:20:35;;;;;;;19.73;14.00;;;5.20;99.90;;;;;;6209418;28;20476;-65
2020/12/17 13:23:37;;;;;;;22.47;15.13;;;5.20;99.90;;;;;;6228923;28;20467;-61
2020/12/17 13:26:41;;;;;;;22.70;13.40;;;5.30;99.90;;;;;;6228940;28;20483;-64
2020/12/17 13:29:43;;;;;;;19.23;14.13;;;5.20;99.90;;;;;;6228867;28;20541;-67
2020/12/17 13:32:46;;;;;;;21.23;14.80;;;5.20;99.90;;;;;;6211377;28;20464;-62
2020/12/17 13:35:48;;;;;;;18.67;14.50;;;5.30;99.90;;;;;;6204272;28;20484;-60
2020/12/17 13:38:50;;;;;;;23.73;14.93;;;5.20;99.90;;;;;;6204276;28;20809;-61
2020/12/17 13:41:53;;;;;;;25.77;15.27;;;4.80;99.90;;;;;;6194736;28;20546;-62
2020/12/17 13:44:56;;;;;;;26.50;15.47;;;4.80;99.90;;;;;;6206868;28;20810;-61
2020/12/17 13:48:01;;;;;;;27.00;16.10;;;4.80;99.90;;;;;;6208841;28;20469;-63
2020/12/17 13:51:03;;;;;;;18.83;13.43;;;4.90;99.90;;;;;;6203776;28;20492;-62
2020/12/17 13:54:05;;;;;;;19.63;12.60;;;5.00;99.90;;;;;;6203793;28;20470;-61
2020/12/17 13:57:08;;;;;;;24.53;14.43;;;5.00;99.90;;;;;;6195099;28;20795;-63
2020/12/17 14:00:11;;;;;;;17.33;12.90;;;5.00;99.90;;;;;;6189400;28;20483;-62
2020/12/17 14:03:13;;;;;;;22.40;14.80;;;5.10;99.90;;;;;;6209020;28;20492;-60
2020/12/17 14:06:20;;;;;;;20.57;16.10;;;5.20;99.90;;;;;;6203360;28;20472;-61
2020/12/17 14:09:22;;;;;;;21.13;13.93;;;5.20;99.90;;;;;;6203655;28;20552;-60
2020/12/17 14:12:25;;;;;;;18.43;14.50;;;5.30;99.90;;;;;;6208618;28;20476;-62
2020/12/17 14:15:35;;;;;;;18.63;13.60;;;5.30;99.90;;;;;;6219032;28;20975;-63
2020/12/17 14:18:41;;;;;;;20.57;14.47;;;5.40;99.90;;;;;;6219072;28;21690;-62
2020/12/17 14:21:43;;;;;;;22.50;14.60;;;5.40;99.90;;;;;;6220132;28;20889;-61
2020/12/17 14:24:46;;;;;;;26.27;15.03;;;5.40;99.90;;;;;;6225485;28;21046;-62
2020/12/17 14:27:49;;;;;;;18.00;13.27;;;5.50;99.90;;;;;;6225298;28;20476;-62
2020/12/17 14:30:51;;;;;;;20.70;13.57;;;5.50;99.90;;;;;;6216440;28;20490;-62
2020/12/17 14:33:57;;;;;;;17.33;14.00;;;5.50;99.90;;;;;;6221996;28;20567;-60
2020/12/17 14:37:00;;;;;;;19.03;13.57;;;5.60;99.90;;;;;;6200881;28;20468;-61
2020/12/17 14:40:02;;;;;;;15.47;13.00;;;5.60;99.90;;;;;;6200693;28;20483;-59
2020/12/17 14:43:05;;;;;;;18.97;14.00;;;5.60;99.90;;;;;;6206092;28;20487;-59
2020/12/17 14:46:07;;;;;;;21.93;14.50;;;5.50;99.90;;;;;;6223414;28;20781;-61
2020/12/17 14:49:10;;;;;;;21.93;14.47;;;5.50;99.90;;;;;;6204611;28;20911;-61
2020/12/17 14:52:12;;;;;;;16.60;12.60;;;5.60;99.90;;;;;;6200139;28;20892;-60
2020/12/17 14:55:15;;;;;;;20.83;13.27;;;5.60;99.90;;;;;;6199967;28;20524;-60
2020/12/17 14:58:18;;;;;;;19.17;14.10;;;5.60;99.90;;;;;;6200125;28;20798;-61
2020/12/17 15:01:20;;;;;;;20.17;14.57;;;5.40;99.90;;;;;;6205205;28;20964;-59
2020/12/17 15:04:23;;;;;;;20.97;15.83;;;5.10;99.90;;;;;;6215515;28;20540;-61
2020/12/17 15:07:25;;;;;;;18.60;15.90;;;5.10;99.90;;;;;;6217326;28;20468;-60
2020/12/17 15:10:27;;;;;;;19.20;14.10;;;5.20;99.90;;;;;;6199121;28;20941;-60
2020/12/17 15:13:31;;;;;;;20.50;15.13;;;5.20;99.90;;;;;;6199970;28;21179;-59
2020/12/17 15:16:33;;;;;;;20.90;14.33;;;5.30;99.90;;;;;;6199791;28;20496;-61
2020/12/17 15:19:36;;;;;;;19.67;14.50;;;5.20;99.90;;;;;;6201383;28;20530;-60
2020/12/17 15:22:38;;;;;;;22.33;15.70;;;5.20;99.90;;;;;;6223725;28;20810;-60
2020/12/17 15:25:40;;;;;;;20.80;14.07;;;5.10;99.90;;;;;;6213451;28;20565;-60
2020/12/17 15:28:43;;;;;;;22.40;14.50;;;5.10;99.90;;;;;;6209363;28;20464;-60
2020/12/17 15:31:46;;;;;;;21.03;14.37;;;5.00;99.90;;;;;;6219650;28;20483;-60
2020/12/17 15:34:48;;;;;;;20.37;13.57;;;5.00;99.90;;;;;;6225804;28;20479;-60
2020/12/17 15:37:50;;;;;;;22.00;14.43;;;5.00;99.90;;;;;;6226269;28;20472;-60
2020/12/17 15:40:52;;;;;;;18.93;15.37;;;5.00;99.90;;;;;;6225669;28;20554;-61
2020/12/17 15:43:56;;;;;;;21.50;14.50;;;5.00;99.90;;;;;;6226125;28;20479;-59
2020/12/17 15:46:59;;;;;;;20.13;15.30;;;5.00;99.90;;;;;;6219143;28;20483;-60
2020/12/17 15:50:01;;;;;;;24.33;15.30;;;5.00;99.90;;;;;;6200782;28;20481;-62